Time;durP1;ratioP1;P1;durP2;ratioP2;P2;SDS_P1;SDS_P2;PMS_P1;PMS_P2;Temp;Humidity;BMP_temperature;BMP_pressure;BME280_temperature;BME280_humidity;BME280_pressure;Samples;Min_cycle;Max_cycle;Signal;HPM_P1;HPM_P2
2021/12/29 00:02:18;;;;;;;;;13.25;5.75;;;;;11.05;74.13;99918.66;5055403;28;45589;-70
2021/12/29 00:04:43;;;;;;;;;16.25;4.00;;;;;11.03;74.16;99924.94;5049724;28;46233;-70
2021/12/29 00:07:10;;;;;;;;;10.25;3.75;;;;;11.04;73.86;99926.66;5048617;28;45493;-63
2021/12/29 00:09:42;;;;;;;;;8.75;5.50;;;;;11.02;73.60;99931.13;5054612;28;47199;-69
2021/12/29 00:12:09;;;;;;;;;7.25;5.50;;;;;11.02;74.17;99937.22;5050968;28;45532;-67
2021/12/29 00:14:35;;;;;;;;;10.25;6.00;;;;;10.96;73.97;99946.31;5055710;28;46393;-68
2021/12/29 00:17:01;;;;;;;;;9.75;6.00;;;;;10.96;73.56;99951.59;5059321;28;45549;-71
2021/12/29 00:19:26;;;;;;;;;13.00;5.00;;;;;10.95;74.15;99960.41;5036228;28;45477;-68
2021/12/29 00:21:52;;;;;;;;;11.50;5.50;;;;;10.91;73.68;99955.38;5055676;28;45563;-70
2021/12/29 00:24:17;;;;;;;;;9.50;5.50;;;;;10.93;74.29;99957.00;5055786;28;45342;-69
2021/12/29 00:26:42;;;;;;;;;10.50;4.50;;;;;10.92;73.83;99976.34;5055654;28;45457;-65
2021/12/29 00:29:08;;;;;;;;;9.25;4.00;;;;;10.92;73.95;99993.91;5057516;28;45756;-69
2021/12/29 00:31:33;;;;;;;;;9.25;6.25;;;;;10.92;74.59;99991.28;5056397;28;45304;-67
2021/12/29 00:33:59;;;;;;;;;13.25;5.75;;;;;10.88;74.11;99987.09;5055658;28;46074;-68
2021/12/29 00:36:26;;;;;;;;;10.75;6.00;;;;;10.96;74.25;100004.22;5057102;28;45381;-70
2021/12/29 00:38:52;;;;;;;;;10.75;4.75;;;;;10.93;74.32;100003.50;5058344;28;45325;-64
2021/12/29 00:41:18;;;;;;;;;8.00;5.00;;;;;10.98;74.78;100006.75;5058976;28;45481;-70
2021/12/29 00:43:44;;;;;;;;;13.00;5.75;;;;;10.99;74.74;100008.44;5057752;28;46271;-67
2021/12/29 00:46:12;;;;;;;;;8.50;6.75;;;;;11.01;74.71;100011.03;5056441;28;45336;-70
2021/12/29 00:48:43;;;;;;;;;14.25;8.25;;;;;11.03;74.82;100017.88;5056690;28;45446;-71
2021/12/29 00:51:09;;;;;;;;;12.00;3.75;;;;;11.02;74.63;100013.56;5057082;28;45154;-57
2021/12/29 00:53:36;;;;;;;;;13.50;8.75;;;;;11.05;75.08;100015.19;5049317;28;46201;-68
2021/12/29 00:56:02;;;;;;;;;10.50;7.00;;;;;11.05;75.22;100008.13;5035185;28;45359;-65
2021/12/29 00:58:29;;;;;;;;;10.50;6.75;;;;;11.02;75.03;100008.28;5035685;28;45784;-63
2021/12/29 01:00:55;;;;;;;;;2.25;1.50;;;;;11.06;75.39;100016.91;5038450;28;45383;-58
2021/12/29 01:03:21;;;;;;;;;15.50;6.25;;;;;11.06;75.58;100016.91;5039131;28;45959;-64
2021/12/29 01:05:46;;;;;;;;;5.50;4.75;;;;;11.04;75.41;100013.50;5036160;28;45336;-65
2021/12/29 01:08:12;;;;;;;;;15.00;6.25;;;;;11.04;75.71;100014.31;5035788;28;45408;-64
2021/12/29 01:10:39;;;;;;;;;7.50;5.00;;;;;11.05;75.99;100015.19;5035716;28;45477;-66
2021/12/29 01:13:07;;;;;;;;;7.25;7.25;;;;;11.00;76.18;100006.69;5035300;28;46101;-67
2021/12/29 01:15:55;;;;;;;;;5.25;2.50;;;;;11.04;75.95;100024.03;5035967;28;45384;-69
2021/12/29 01:18:21;;;;;;;;;16.75;5.00;;;;;11.01;76.06;100017.13;5035793;28;45344;-58
2021/12/29 01:20:47;;;;;;;;;10.00;7.25;;;;;11.02;76.50;100021.44;5034306;28;45486;-65
2021/12/29 01:23:12;;;;;;;;;18.00;7.25;;;;;11.00;76.18;100020.69;5036437;28;46252;-62
2021/12/29 01:25:38;;;;;;;;;7.75;4.00;;;;;11.01;76.74;100029.44;5037731;28;45331;-59
2021/12/29 01:28:03;;;;;;;;;8.50;4.50;;;;;10.99;76.86;100032.13;5041121;28;45245;-65
2021/12/29 01:30:28;;;;;;;;;11.00;5.00;;;;;10.99;76.44;100026.03;5040156;28;45261;-59
2021/12/29 01:32:54;;;;;;;;;10.50;5.75;;;;;10.98;76.84;100032.22;5036347;28;47531;-57
2021/12/29 01:35:19;;;;;;;;;11.00;6.50;;;;;10.99;76.76;100018.97;5038899;28;45286;-58
2021/12/29 01:37:45;;;;;;;;;7.00;4.00;;;;;10.98;76.48;100024.34;5042153;28;45234;-62
2021/12/29 01:40:14;;;;;;;;;13.25;7.50;;;;;10.98;77.17;100021.72;5038368;28;45586;-60
2021/12/29 01:42:40;;;;;;;;;8.00;5.50;;;;;10.89;76.95;100008.09;5020132;28;47264;-62
2021/12/29 01:45:06;;;;;;;;;13.00;6.00;;;;;10.96;77.17;100019.13;5038781;28;45320;-70
2021/12/29 01:47:32;;;;;;;;;11.50;4.00;;;;;10.93;77.65;100025.41;5041222;28;45357;-65
2021/12/29 01:50:00;;;;;;;;;11.25;6.25;;;;;10.94;77.20;100026.25;5039542;28;45587;-65
2021/12/29 01:52:29;;;;;;;;;9.75;5.75;;;;;10.94;77.55;100027.13;5039012;28;47210;-64
2021/12/29 01:54:55;;;;;;;;;9.00;5.75;;;;;10.98;77.20;100029.59;5037924;28;45844;-62
2021/12/29 01:57:22;;;;;;;;;9.75;5.50;;;;;11.01;77.81;100026.81;5038009;28;45333;-59
2021/12/29 01:59:47;;;;;;;;;5.25;5.00;;;;;10.99;77.60;100024.25;5038680;28;45340;-62
2021/12/29 02:02:14;;;;;;;;;11.25;6.00;;;;;11.02;77.69;100033.78;5041468;28;45325;-62
2021/12/29 02:04:42;;;;;;;;;9.50;3.25;;;;;11.02;77.83;100039.03;5047570;28;45334;-64
2021/12/29 02:07:07;;;;;;;;;10.25;5.25;;;;;11.01;77.89;100040.81;5039320;28;45419;-62
2021/12/29 02:09:33;;;;;;;;;11.00;3.25;;;;;11.02;77.78;100039.88;5020639;28;45561;-70
2021/12/29 02:11:59;;;;;;;;;9.75;6.75;;;;;11.04;77.74;100047.72;5038321;28;45375;-65
2021/12/29 02:14:24;;;;;;;;;11.00;4.50;;;;;11.04;77.58;100042.44;5021085;28;45352;-70
2021/12/29 02:16:49;;;;;;;;;10.50;7.00;;;;;11.04;77.44;100042.44;5038877;28;45269;-65
2021/12/29 02:19:15;;;;;;;;;13.50;6.75;;;;;11.06;77.82;100043.22;5037997;28;45550;-70
2021/12/29 02:21:54;;;;;;;;;10.50;5.25;;;;;11.05;77.82;100039.72;5037598;28;46132;-69
2021/12/29 02:24:23;;;;;;;;;8.75;5.50;;;;;10.98;78.00;100029.59;5036376;28;45301;-66
2021/12/29 02:26:50;;;;;;;;;11.25;4.00;;;;;10.98;78.22;100034.84;5037881;28;45369;-69
2021/12/29 02:29:17;;;;;;;;;11.75;4.50;;;;;11.04;78.18;100047.72;5037769;28;45258;-69
2021/12/29 02:31:44;;;;;;;;;9.50;4.75;;;;;11.06;78.06;100037.94;5037794;28;46554;-71
2021/12/29 02:34:12;;;;;;;;;8.75;5.25;;;;;11.07;77.78;100044.91;5040371;28;45313;-70
2021/12/29 02:36:45;;;;;;;;;11.50;5.25;;;;;11.07;78.34;100047.56;5037900;28;45408;-69
2021/12/29 02:39:21;;;;;;;;;10.25;6.50;;;;;11.10;78.75;100037.69;5037812;28;45528;-70
2021/12/29 02:41:52;;;;;;;;;9.75;5.75;;;;;11.11;78.72;100051.72;5039634;28;45603;-70
2021/12/29 02:44:25;;;;;;;;;11.00;5.25;;;;;11.12;78.55;100042.91;5038983;28;45474;-71
2021/12/29 02:46:52;;;;;;;;;6.25;5.00;;;;;11.14;78.17;100040.22;5039087;28;45346;-68
2021/12/29 02:49:18;;;;;;;;;10.25;4.00;;;;;11.13;78.11;100034.06;5039486;28;45250;-70
2021/12/29 02:51:43;;;;;;;;;10.25;5.75;;;;;11.16;78.47;100038.34;5040677;28;46187;-66
2021/12/29 02:54:09;;;;;;;;;12.50;5.50;;;;;11.17;78.20;100029.53;5039630;28;45272;-64
2021/12/29 02:56:35;;;;;;;;;12.00;4.00;;;;;11.12;78.45;100029.75;5038732;28;45414;-70
2021/12/29 02:59:00;;;;;;;;;5.75;3.75;;;;;11.17;78.61;100033.00;5038713;28;45337;-68
2021/12/29 03:01:27;;;;;;;;;9.00;5.00;;;;;11.18;78.53;100037.31;5039896;28;46027;-65
2021/12/29 03:03:55;;;;;;;;;13.25;6.00;;;;;11.20;78.62;100043.34;5038953;28;45415;-69
2021/12/29 03:06:22;;;;;;;;;10.00;4.25;;;;;11.21;78.08;100042.44;5038653;28;45343;-67
2021/12/29 03:08:47;;;;;;;;;7.50;5.75;;;;;11.22;78.18;100040.66;5039329;28;45364;-67
2021/12/29 03:11:13;;;;;;;;;4.50;4.00;;;;;11.24;78.03;100036.16;5036467;28;47863;-69
2021/12/29 03:13:39;;;;;;;;;13.50;4.25;;;;;11.25;78.20;100024.72;5038702;28;45335;-70
2021/12/29 03:16:06;;;;;;;;;5.75;4.00;;;;;11.27;78.50;100030.75;5040620;28;45232;-69
2021/12/29 03:18:32;;;;;;;;;8.00;4.00;;;;;11.29;78.20;100044.69;5040850;28;45423;-67
2021/12/29 03:20:57;;;;;;;;;7.25;6.25;;;;;11.28;78.14;100037.72;5041884;28;46045;-62
2021/12/29 03:23:23;;;;;;;;;11.00;5.25;;;;;11.24;78.28;100029.09;5037962;28;45566;-69
2021/12/29 03:25:49;;;;;;;;;4.50;2.75;;;;;11.31;78.43;100034.91;5041270;28;45453;-65
2021/12/29 03:28:16;;;;;;;;;6.50;3.75;;;;;11.31;78.18;100027.03;5037302;28;45347;-68
2021/12/29 03:30:43;;;;;;;;;6.75;4.00;;;;;11.31;78.28;100028.78;5039920;28;45422;-65
2021/12/29 03:33:09;;;;;;;;;5.50;3.75;;;;;11.29;79.25;100028.88;5042452;28;45240;-69
2021/12/29 03:35:38;;;;;;;;;10.25;5.00;;;;;11.30;78.99;100037.63;5037990;28;45938;-66
2021/12/29 03:38:07;;;;;;;;;7.00;4.00;;;;;11.33;78.99;100037.47;5020001;28;45621;-67
2021/12/29 03:40:35;;;;;;;;;8.75;4.25;;;;;11.30;78.92;100034.97;5037676;28;45433;-68
2021/12/29 03:43:02;;;;;;;;;8.00;3.00;;;;;11.31;79.29;100034.91;5037849;28;45363;-69
2021/12/29 03:45:27;;;;;;;;;9.50;7.50;;;;;11.30;79.10;100032.34;5038065;28;45395;-65
2021/12/29 03:47:52;;;;;;;;;10.00;5.75;;;;;11.29;79.93;100030.66;5037980;28;45463;-69
2021/12/29 03:50:18;;;;;;;;;15.50;4.25;;;;;11.29;79.58;100035.91;5038463;28;46093;-67
2021/12/29 03:52:43;;;;;;;;;11.50;5.25;;;;;11.27;79.56;100033.38;5037722;28;45365;-69
2021/12/29 03:55:09;;;;;;;;;9.50;3.50;;;;;11.25;79.97;100030.81;5038128;28;45395;-67
2021/12/29 03:57:35;;;;;;;;;6.50;4.75;;;;;11.25;80.20;100022.06;5037729;28;45591;-69
2021/12/29 04:00:01;;;;;;;;;8.25;3.75;;;;;11.25;79.99;100020.28;5020103;28;46191;-66
2021/12/29 04:02:27;;;;;;;;;4.75;3.25;;;;;11.29;80.01;100020.13;5037459;28;45490;-69
2021/12/29 04:04:52;;;;;;;;;6.50;3.00;;;;;11.28;80.11;100018.41;5040227;28;45193;-70
2021/12/29 04:07:17;;;;;;;;;5.75;4.50;;;;;11.20;80.04;100009.13;5037634;28;45344;-70
2021/12/29 04:09:43;;;;;;;;;7.00;3.75;;;;;11.25;80.24;100020.28;5037476;28;46166;-67
2021/12/29 04:12:09;;;;;;;;;7.25;3.00;;;;;11.19;80.43;100010.06;5038859;28;45289;-69
2021/12/29 04:14:35;;;;;;;;;4.25;3.75;;;;;11.22;80.45;100023.06;5039824;28;45341;-65
2021/12/29 04:17:08;;;;;;;;;5.75;2.50;;;;;11.24;80.50;100025.63;5038601;28;45586;-68
2021/12/29 04:22:19;;;;;;;;;3.75;3.00;;;;;11.20;80.82;100021.47;5037538;28;45251;-71
2021/12/29 04:24:45;;;;;;;;;6.00;3.50;;;;;11.21;81.12;100026.63;5020029;28;45295;-67
2021/12/29 04:27:10;;;;;;;;;7.50;4.00;;;;;11.22;81.04;100024.88;5038742;28;45517;-70
2021/12/29 04:29:35;;;;;;;;;7.25;3.00;;;;;11.18;81.06;100020.69;5041066;28;46155;-71
2021/12/29 04:32:01;;;;;;;;;8.50;4.00;;;;;11.19;81.75;100023.22;5037884;28;45317;-71
2021/12/29 04:34:26;;;;;;;;;7.00;3.25;;;;;11.17;81.69;100033.00;5037100;28;45431;-70
2021/12/29 04:36:51;;;;;;;;;8.25;2.50;;;;;11.11;82.40;100023.59;5037766;28;45438;-65
2021/12/29 04:39:17;;;;;;;;;6.50;3.75;;;;;11.07;81.86;100015.97;5041365;28;46135;-66
2021/12/29 04:41:42;;;;;;;;;7.00;3.00;;;;;11.08;82.42;100009.78;5045022;28;44813;-63
2021/12/29 04:44:07;;;;;;;;;3.00;2.75;;;;;11.11;82.70;100014.88;5040348;28;45289;-66
2021/12/29 04:46:39;;;;;;;;;5.25;3.00;;;;;11.09;82.89;100014.09;5038086;28;45321;-70
2021/12/29 04:49:09;;;;;;;;;6.00;3.50;;;;;11.05;83.05;100018.66;5037129;28;46224;-62
2021/12/29 04:51:36;;;;;;;;;4.50;2.00;;;;;11.01;83.04;100006.59;5039863;28;45479;-65
2021/12/29 04:54:07;;;;;;;;;7.25;4.25;;;;;11.01;83.88;100013.66;5037149;28;45402;-69
2021/12/29 04:56:33;;;;;;;;;4.25;2.00;;;;;10.97;84.20;100002.41;5036847;28;45376;-67
2021/12/29 04:58:58;;;;;;;;;6.75;3.00;;;;;10.99;83.93;100010.25;5036990;28;46439;-69
2021/12/29 05:01:24;;;;;;;;;4.75;2.00;;;;;10.91;84.12;99990.44;5038284;28;45438;-69
2021/12/29 05:03:49;;;;;;;;;4.00;2.25;;;;;10.94;84.37;99995.53;5040167;28;45773;-66
2021/12/29 05:08:40;;;;;;;;;11.00;4.25;;;;;10.93;85.11;99993.84;5040207;28;46057;-69
2021/12/29 05:11:15;;;;;;;;;2.50;2.00;;;;;10.94;85.40;99984.16;5040850;28;45364;-69
2021/12/29 05:13:43;;;;;;;;;4.75;3.25;;;;;10.92;85.42;99994.78;5042623;28;45314;-67
2021/12/29 05:16:09;;;;;;;;;4.00;2.50;;;;;10.91;85.90;99979.03;5040202;28;45320;-66
2021/12/29 05:18:36;;;;;;;;;5.00;3.25;;;;;10.92;85.80;99984.25;5022300;28;48129;-70
2021/12/29 05:21:04;;;;;;;;;6.25;3.50;;;;;10.92;85.86;99980.75;5039665;28;45460;-62
2021/12/29 05:23:30;;;;;;;;;5.75;2.25;;;;;10.88;85.94;99976.56;5040451;28;45380;-65
2021/12/29 05:25:56;;;;;;;;;3.00;2.50;;;;;10.84;85.63;99978.53;5040795;28;45645;-71
2021/12/29 05:28:23;;;;;;;;;3.50;1.75;;;;;10.80;86.12;99974.34;5045270;28;46423;-70
2021/12/29 05:30:49;;;;;;;;;3.00;2.00;;;;;10.80;86.09;99969.09;5044750;28;45347;-68
2021/12/29 05:33:15;;;;;;;;;1.25;1.00;;;;;10.79;86.06;99964.75;5039604;28;45434;-65
2021/12/29 05:35:41;;;;;;;;;3.75;2.00;;;;;10.87;86.37;99977.50;5041652;28;45405;-69
2021/12/29 05:38:06;;;;;;;;;3.50;2.25;;;;;10.89;86.12;99971.25;5039877;28;46410;-63
2021/12/29 05:40:32;;;;;;;;;4.00;2.00;;;;;10.91;86.70;99964.13;5039474;28;45466;-60
2021/12/29 05:42:58;;;;;;;;;2.75;2.75;;;;;10.94;86.88;99963.09;5039457;28;45312;-65
2021/12/29 05:45:25;;;;;;;;;2.75;2.75;;;;;10.94;87.76;99961.34;5038939;28;45351;-59
2021/12/29 05:47:51;;;;;;;;;4.75;3.25;;;;;10.97;87.34;99973.47;5039516;28;46301;-61
2021/12/29 05:50:22;;;;;;;;;3.50;2.50;;;;;10.95;88.02;99959.53;5039898;28;45455;-68
2021/12/29 05:52:48;;;;;;;;;8.00;5.00;;;;;10.92;88.16;99955.31;5039385;28;45394;-70
2021/12/29 05:55:15;;;;;;;;;5.25;5.00;;;;;10.90;87.89;99946.63;5039512;28;45428;-69
2021/12/29 05:57:40;;;;;;;;;6.75;6.00;;;;;10.96;88.86;99951.59;5039394;28;45404;-67
2021/12/29 06:00:15;;;;;;;;;5.50;5.50;;;;;10.95;88.31;99949.88;5021398;28;45433;-67
2021/12/29 06:02:41;;;;;;;;;11.25;7.50;;;;;10.92;88.99;99950.03;5040820;28;45368;-67
2021/12/29 06:05:07;;;;;;;;;6.25;5.25;;;;;10.90;89.17;99949.28;5040644;28;45399;-65
2021/12/29 06:07:33;;;;;;;;;6.25;6.00;;;;;10.78;88.83;99945.47;5039660;28;45384;-68
2021/12/29 06:09:58;;;;;;;;;11.75;8.00;;;;;10.83;89.43;99953.16;5038789;28;45359;-65
2021/12/29 06:12:24;;;;;;;;;7.50;7.25;;;;;10.84;89.80;99941.69;5042621;28;45534;-62
2021/12/29 06:14:50;;;;;;;;;9.75;7.00;;;;;10.69;90.07;99924.06;5039130;28;45544;-69
2021/12/29 06:17:17;;;;;;;;;10.75;7.75;;;;;10.83;89.82;99942.63;5039197;28;46346;-68
2021/12/29 06:19:42;;;;;;;;;10.50;9.50;;;;;10.84;90.04;99946.97;5039174;28;45342;-70
2021/12/29 06:22:11;;;;;;;;;13.50;13.25;;;;;10.85;90.60;99946.03;5041210;28;45352;-56
2021/12/29 06:24:41;;;;;;;;;9.25;9.25;;;;;10.86;91.58;99950.34;5040914;28;45416;-70
2021/12/29 06:27:07;;;;;;;;;9.25;8.00;;;;;10.82;91.16;99952.28;5039206;28;46426;-70
2021/12/29 06:29:33;;;;;;;;;9.75;8.00;;;;;10.84;91.73;99949.59;5038763;28;45403;-66
2021/12/29 06:32:00;;;;;;;;;8.00;8.00;;;;;10.80;91.67;99954.13;5037710;28;45299;-65
2021/12/29 06:34:25;;;;;;;;;11.00;9.75;;;;;10.78;91.28;99956.00;5039121;28;45335;-66
2021/12/29 06:36:51;;;;;;;;;10.50;10.00;;;;;10.77;90.89;99953.47;5043473;28;46245;-60
2021/12/29 06:39:16;;;;;;;;;9.25;6.75;;;;;10.74;91.22;99957.09;5047606;28;45427;-64
2021/12/29 06:41:41;;;;;;;;;10.50;6.75;;;;;10.74;91.67;99956.25;5042578;28;45250;-63
2021/12/29 06:44:07;;;;;;;;;11.50;8.00;;;;;10.74;91.91;99951.81;5038564;28;45589;-61
2021/12/29 06:46:34;;;;;;;;;7.75;7.25;;;;;10.73;91.98;99947.50;5037762;28;45746;-61
2021/12/29 06:49:00;;;;;;;;;9.25;9.25;;;;;10.72;92.22;99950.22;5037030;28;45362;-69
2021/12/29 06:51:25;;;;;;;;;10.25;8.00;;;;;10.73;91.75;99952.75;5038733;28;45347;-60
2021/12/29 06:53:50;;;;;;;;;9.50;7.50;;;;;10.69;92.70;99948.59;5038626;28;45404;-61
2021/12/29 06:56:16;;;;;;;;;7.50;6.50;;;;;10.71;93.01;99948.50;5038256;28;46628;-65
2021/12/29 06:58:41;;;;;;;;;9.00;7.25;;;;;10.69;92.20;99951.22;5039549;28;45348;-69
2021/12/29 07:01:07;;;;;;;;;6.25;6.00;;;;;10.66;92.79;99941.72;5039696;28;45633;-63
2021/12/29 07:03:33;;;;;;;;;9.25;7.75;;;;;10.70;92.40;99945.03;5038127;28;45419;-60
2021/12/29 07:05:59;;;;;;;;;9.00;7.25;;;;;10.71;92.43;99949.34;5037928;28;46045;-62
2021/12/29 07:08:24;;;;;;;;;5.75;5.25;;;;;10.52;92.79;99924.00;5039093;28;45403;-59
2021/12/29 07:10:50;;;;;;;;;10.75;7.00;;;;;10.70;92.76;99947.66;5038355;28;45450;-57
2021/12/29 07:13:16;;;;;;;;;12.00;9.25;;;;;10.70;92.52;99947.66;5038257;28;45460;-63
2021/12/29 07:15:41;;;;;;;;;4.00;3.00;;;;;10.70;92.70;99955.53;5039123;28;45343;-64
2021/12/29 07:18:06;;;;;;;;;7.25;6.50;;;;;10.61;92.95;99940.22;5038490;28;45332;-68
2021/12/29 07:20:32;;;;;;;;;6.50;6.25;;;;;10.65;92.91;99947.91;5038636;28;45297;-69
2021/12/29 07:22:57;;;;;;;;;8.25;6.00;;;;;10.64;92.68;99946.19;5040054;28;45453;-67
2021/12/29 07:25:24;;;;;;;;;7.50;7.00;;;;;10.64;92.93;99954.09;5038134;28;46566;-70
2021/12/29 07:27:50;;;;;;;;;9.50;9.50;;;;;10.63;93.55;99957.66;5040024;28;45393;-66
2021/12/29 07:30:16;;;;;;;;;8.75;8.75;;;;;10.66;94.03;99951.38;5038431;28;45788;-65
2021/12/29 07:32:41;;;;;;;;;10.75;8.75;;;;;10.63;93.49;99946.25;5038507;28;45352;-58
2021/12/29 07:35:07;;;;;;;;;13.50;11.50;;;;;10.67;93.25;99945.19;5038264;28;46152;-67
2021/12/29 07:37:32;;;;;;;;;11.75;10.75;;;;;10.68;94.24;99940.78;5038059;28;45462;-69
2021/12/29 07:39:58;;;;;;;;;11.25;8.25;;;;;10.69;94.42;99953.84;5038119;28;45390;-68
2021/12/29 07:42:23;;;;;;;;;13.00;8.00;;;;;10.66;94.15;99951.38;5038487;28;45491;-69
2021/12/29 07:44:50;;;;;;;;;9.25;8.25;;;;;10.64;94.52;99951.47;5037684;28;46198;-65
2021/12/29 07:47:16;;;;;;;;;10.00;10.00;;;;;10.67;94.11;99963.59;5038458;28;45450;-66
2021/12/29 07:49:41;;;;;;;;;11.00;10.25;;;;;10.68;94.31;99961.81;5038129;28;45356;-63
2021/12/29 07:52:07;;;;;;;;;12.00;7.00;;;;;10.68;94.50;99959.19;5038429;28;45693;-63
2021/12/29 07:54:32;;;;;;;;;10.00;10.00;;;;;10.68;94.11;99967.91;5040176;28;46526;-68
2021/12/29 07:56:58;;;;;;;;;8.00;8.00;;;;;10.72;94.83;99968.63;5038791;28;45177;-70
2021/12/29 07:59:23;;;;;;;;;7.00;7.00;;;;;10.74;94.69;99975.50;5038729;28;45299;-64
2021/12/29 08:01:49;;;;;;;;;6.00;5.50;;;;;10.75;94.75;99963.22;5037621;28;45434;-71
2021/12/29 08:04:16;;;;;;;;;9.25;8.25;;;;;10.77;94.24;99971.88;5020664;28;47280;-72
2021/12/29 08:06:42;;;;;;;;;11.00;11.00;;;;;10.77;94.54;99969.25;5040010;28;45332;-77
2021/12/29 08:09:09;;;;;;;;;12.50;9.50;;;;;10.81;94.68;99976.06;5039376;28;45485;-69
2021/12/29 08:11:35;;;;;;;;;14.50;12.75;;;;;10.80;94.90;99979.63;5040116;28;45530;-69
2021/12/29 08:14:01;;;;;;;;;11.00;11.00;;;;;10.89;94.36;99988.81;5059066;28;45519;-67
2021/12/29 08:16:26;;;;;;;;;9.50;9.25;;;;;10.90;94.71;99987.88;5055879;28;45340;-65
2021/12/29 08:18:51;;;;;;;;;11.75;10.75;;;;;10.94;94.69;99986.78;5055698;28;45507;-66
2021/12/29 08:21:17;;;;;;;;;12.50;10.25;;;;;10.95;94.36;99988.47;5038767;28;45424;-68
2021/12/29 08:23:42;;;;;;;;;13.75;12.50;;;;;10.94;95.13;99992.91;5021343;28;46303;-65
2021/12/29 08:26:08;;;;;;;;;13.00;11.00;;;;;10.94;95.02;99992.91;5055768;28;45269;-70
2021/12/29 08:28:33;;;;;;;;;14.50;11.75;;;;;10.98;94.57;100004.13;5057505;28;45252;-70
2021/12/29 08:30:59;;;;;;;;;10.25;9.50;;;;;10.96;95.08;100004.22;5076411;28;45628;-63
2021/12/29 08:33:24;;;;;;;;;11.00;10.00;;;;;11.01;94.95;100003.13;5071232;28;45448;-69
2021/12/29 08:35:50;;;;;;;;;14.75;14.75;;;;;11.04;95.22;100005.59;5057019;28;45577;-69
2021/12/29 08:38:15;;;;;;;;;16.75;13.75;;;;;11.11;95.37;100014.88;5054649;28;45289;-70
2021/12/29 08:40:41;;;;;;;;;10.00;9.00;;;;;11.09;95.04;99999.16;5060812;28;45554;-70
2021/12/29 08:43:06;;;;;;;;;13.25;9.50;;;;;11.20;95.34;100011.78;5034961;28;46006;-66
2021/12/29 08:45:32;;;;;;;;;12.25;11.00;;;;;11.22;94.54;100004.63;5044322;28;45352;-62
2021/12/29 08:47:58;;;;;;;;;9.50;9.50;;;;;11.26;94.58;100002.72;5054727;28;45512;-67
2021/12/29 08:50:25;;;;;;;;;13.50;10.75;;;;;11.31;94.88;99991.94;5055365;28;45398;-69
2021/12/29 08:52:51;;;;;;;;;11.75;11.00;;;;;11.35;95.10;100001.38;5054995;28;45399;-67
2021/12/29 08:55:18;;;;;;;;;10.75;9.75;;;;;11.40;95.53;100004.59;5055362;28;45423;-67
2021/12/29 08:57:44;;;;;;;;;10.50;10.00;;;;;11.44;95.23;100000.03;5056271;28;45284;-68
2021/12/29 09:00:13;;;;;;;;;15.50;12.50;;;;;11.49;94.94;100004.13;5038559;28;45677;-68
2021/12/29 09:02:39;;;;;;;;;11.50;9.75;;;;;11.52;94.14;100013.66;5056780;28;46250;-68
2021/12/29 09:05:05;;;;;;;;;10.00;9.75;;;;;11.47;94.73;100002.50;5057043;28;45284;-67
2021/12/29 09:07:31;;;;;;;;;16.00;12.50;;;;;11.58;94.78;100015.09;5058298;28;45815;-67
2021/12/29 09:09:56;;;;;;;;;18.25;14.00;;;;;11.63;94.67;100005.16;5057734;28;45511;-66
2021/12/29 09:12:21;;;;;;;;;14.25;13.00;;;;;11.69;95.10;100005.69;5056255;28;45430;-67
2021/12/29 09:14:48;;;;;;;;;14.25;11.25;;;;;11.69;94.49;99994.31;5056597;28;45353;-65
2021/12/29 09:17:14;;;;;;;;;17.75;15.75;;;;;11.77;94.63;100002.66;5057136;28;45334;-65
2021/12/29 09:19:41;;;;;;;;;19.00;14.75;;;;;11.82;94.80;99990.06;5055709;28;45641;-68
2021/12/29 09:22:08;;;;;;;;;15.00;12.75;;;;;11.89;94.30;99981.81;5038287;28;46412;-70
2021/12/29 09:24:33;;;;;;;;;18.75;12.75;;;;;11.90;94.99;99980.88;5037756;28;45298;-68
2021/12/29 09:26:59;;;;;;;;;11.50;11.50;;;;;11.96;94.46;99986.66;5055783;28;45413;-68
2021/12/29 09:29:25;;;;;;;;;13.00;12.25;;;;;12.02;94.05;100006.59;5056516;28;45394;-67
2021/12/29 09:31:50;;;;;;;;;12.25;9.75;;;;;12.01;94.37;99998.75;5055353;28;45366;-68
2021/12/29 09:34:17;;;;;;;;;12.75;12.75;;;;;12.09;94.46;100002.69;5037008;28;45328;-66
2021/12/29 09:36:42;;;;;;;;;11.50;9.00;;;;;12.16;94.07;99997.06;5055295;28;45290;-62
2021/12/29 09:39:08;;;;;;;;;13.75;12.50;;;;;12.18;94.19;99997.81;5055257;28;45598;-68
2021/12/29 09:41:33;;;;;;;;;9.50;8.50;;;;;12.24;94.13;100000.13;5043947;28;45500;-68
2021/12/29 09:43:59;;;;;;;;;11.25;9.75;;;;;12.25;94.03;99996.53;5033498;28;45407;-67
2021/12/29 09:46:25;;;;;;;;;11.25;9.00;;;;;12.31;93.97;100000.63;5036431;28;45404;-68
2021/12/29 09:48:51;;;;;;;;;13.25;10.50;;;;;12.35;94.00;99997.72;5036835;28;45446;-67
2021/12/29 09:51:18;;;;;;;;;13.00;11.50;;;;;12.43;94.40;99989.38;5038039;28;45397;-68
2021/12/29 09:53:45;;;;;;;;;15.50;13.50;;;;;12.50;94.37;99988.09;5019551;28;45527;-66
2021/12/29 09:56:11;;;;;;;;;12.75;12.75;;;;;12.54;93.89;99989.59;5019228;28;45310;-67
2021/12/29 09:58:39;;;;;;;;;16.25;15.25;;;;;12.63;94.14;99998.75;5037578;28;45324;-67
2021/12/29 10:01:06;;;;;;;;;16.50;14.50;;;;;12.68;94.29;99995.88;5037435;28;45389;-68
2021/12/29 10:03:32;;;;;;;;;12.75;9.50;;;;;12.74;93.72;99982.31;5037726;28;45194;-66
2021/12/29 10:06:01;;;;;;;;;11.00;10.00;;;;;12.81;93.51;99996.00;5035530;28;45312;-68
2021/12/29 10:08:32;;;;;;;;;10.00;10.00;;;;;12.84;93.51;99993.19;5037281;28;45385;-68
2021/12/29 10:11:14;;;;;;;;;13.25;12.75;;;;;12.87;93.58;99993.00;5038599;28;46209;-68
2021/12/29 10:13:43;;;;;;;;;7.25;7.25;;;;;12.94;93.76;99990.84;5041372;28;45225;-67
2021/12/29 10:16:12;;;;;;;;;13.25;10.50;;;;;13.00;93.84;99999.25;5037492;28;45431;-69
2021/12/29 10:18:43;;;;;;;;;7.75;7.00;;;;;13.03;93.24;100000.84;5037520;28;45344;-67
2021/12/29 10:21:14;;;;;;;;;11.00;9.00;;;;;13.06;93.40;99987.44;5036899;28;46154;-69
2021/12/29 10:23:46;;;;;;;;;6.75;6.75;;;;;13.11;93.34;99993.31;5037621;28;45328;-67
2021/12/29 10:26:18;;;;;;;;;10.75;8.00;;;;;13.17;93.28;100001.81;5037737;28;45327;-66
2021/12/29 10:28:48;;;;;;;;;9.50;8.25;;;;;13.16;93.21;100008.88;5037702;28;45366;-67
2021/12/29 10:31:23;;;;;;;;;16.00;15.50;;;;;13.19;93.23;100013.97;5037357;28;46073;-67
2021/12/29 10:33:54;;;;;;;;;8.50;8.00;;;;;13.20;93.60;100009.53;5038595;28;45427;-68
2021/12/29 10:36:22;;;;;;;;;9.25;9.00;;;;;13.21;93.51;100022.66;5038057;28;45344;-64
2021/12/29 10:39:01;;;;;;;;;13.00;9.00;;;;;13.22;93.69;100018.22;5038727;28;45502;-68
2021/12/29 10:41:29;;;;;;;;;12.25;10.00;;;;;13.25;93.94;100003.03;5037340;28;46257;-65
2021/12/29 10:44:04;;;;;;;;;8.00;8.00;;;;;13.29;94.07;100014.28;5036869;28;45379;-66
2021/12/29 10:46:34;;;;;;;;;7.25;6.75;;;;;13.29;93.91;100015.13;5040549;28;45500;-67
2021/12/29 10:49:04;;;;;;;;;6.00;6.00;;;;;13.28;94.15;100018.72;5054541;28;45570;-67
2021/12/29 10:51:35;;;;;;;;;9.50;7.50;;;;;13.30;94.42;100030.03;5054041;28;45532;-65
2021/12/29 10:54:13;;;;;;;;;10.25;8.50;;;;;13.32;94.47;100023.81;5038216;28;45539;-67
2021/12/29 10:56:42;;;;;;;;;7.00;6.00;;;;;13.34;94.88;100027.19;5037967;28;45515;-68
2021/12/29 10:59:24;;;;;;;;;6.25;6.00;;;;;13.37;94.76;100029.66;5037338;28;45293;-67
2021/12/29 11:01:50;;;;;;;;;8.00;8.00;;;;;13.40;94.81;100026.81;5036714;28;46079;-68
2021/12/29 11:04:17;;;;;;;;;8.25;7.50;;;;;13.41;95.07;100036.44;5047160;28;45328;-68
2021/12/29 11:06:46;;;;;;;;;6.75;6.75;;;;;13.43;95.29;100034.59;5058560;28;45369;-67
2021/12/29 11:09:14;;;;;;;;;10.25;7.00;;;;;13.44;94.99;100034.53;5056499;28;45275;-68
2021/12/29 11:11:43;;;;;;;;;6.00;6.00;;;;;13.45;95.74;100038.00;5056538;28;46647;-69
2021/12/29 11:14:21;;;;;;;;;7.75;7.25;;;;;13.45;96.00;100040.63;5056451;28;45385;-68
2021/12/29 11:16:53;;;;;;;;;7.00;5.00;;;;;13.49;96.33;100036.88;5059608;28;45388;-64
2021/12/29 11:19:18;;;;;;;;;9.25;7.25;;;;;13.52;96.42;100028.75;5060953;28;45360;-69
2021/12/29 11:21:44;;;;;;;;;9.00;8.00;;;;;13.59;96.59;100040.63;5057149;28;45378;-68
2021/12/29 11:24:14;;;;;;;;;16.00;14.50;;;;;13.66;96.67;100037.63;5057535;28;45283;-69
2021/12/29 11:26:40;;;;;;;;;9.25;8.25;;;;;13.71;96.90;100041.69;5057874;28;45457;-67
2021/12/29 11:29:12;;;;;;;;;7.00;6.50;;;;;13.75;97.67;100047.63;5040490;28;45617;-69